createdAt,value
2019-03-25T00:01:20.282Z,99624.54
2019-03-25T00:03:48.648Z,99625.41
2019-03-25T00:06:17.180Z,99624.64
2019-03-25T00:08:45.542Z,99620.30
2019-03-25T00:11:13.920Z,99618.52
2019-03-25T00:13:42.297Z,99612.37
2019-03-25T00:16:10.736Z,99612.47
2019-03-25T00:18:39.096Z,99613.80
2019-03-25T00:21:07.469Z,99608.60
2019-03-25T00:23:35.837Z,99602.92
2019-03-25T00:26:04.215Z,99613.13
2019-03-25T00:28:32.577Z,99606.52
2019-03-25T00:31:01.024Z,99599.45
2019-03-25T00:33:29.389Z,99591.22
2019-03-25T00:35:57.760Z,99584.61
2019-03-25T00:38:26.127Z,99593.49
2019-03-25T00:40:54.505Z,99590.45
2019-03-25T00:43:23.357Z,99575.92
2019-03-25T00:45:51.721Z,99569.80
2019-03-25T00:48:20.093Z,99555.83
2019-03-25T00:50:48.528Z,99560.63
2019-03-25T00:53:16.902Z,99556.29
2019-03-25T00:55:45.265Z,99551.47
2019-03-25T00:58:13.655Z,99549.78
2019-03-25T01:00:42.200Z,99553.74
2019-03-25T01:03:10.640Z,99554.30
2019-03-25T01:05:39.076Z,99548.16
2019-03-25T01:08:07.449Z,99549.48
2019-03-25T01:10:38.907Z,99543.46
2019-03-25T01:13:07.291Z,99543.06
2019-03-25T01:15:35.721Z,99537.78
2019-03-25T01:18:04.176Z,99531.73
2019-03-25T01:20:32.542Z,99535.23
2019-03-25T01:23:00.929Z,99534.38
2019-03-25T01:25:29.298Z,99529.58
2019-03-25T01:27:57.684Z,99526.55
2019-03-25T01:30:26.060Z,99525.72
2019-03-25T01:32:54.439Z,99519.57
2019-03-25T01:35:23.830Z,99519.57
2019-03-25T01:37:52.200Z,99518.72
2019-03-25T01:40:20.565Z,99516.08
2019-03-25T01:42:48.956Z,99515.18
2019-03-25T01:45:17.313Z,99504.70
2019-03-25T01:47:45.744Z,99506.03
2019-03-25T01:50:14.137Z,99509.99
2019-03-25T01:52:42.516Z,99503.48
2019-03-25T01:55:13.638Z,99497.37
2019-03-25T01:57:41.212Z,99494.73
2019-03-25T02:00:09.911Z,99491.70
2019-03-25T02:02:38.277Z,99483.77
2019-03-25T02:05:07.131Z,99476.30
2019-03-25T02:07:35.494Z,99466.23
2019-03-25T02:10:07.984Z,99470.20
2019-03-25T02:12:36.365Z,99461.78
2019-03-25T02:15:05.605Z,99463.30
2019-03-25T02:17:33.981Z,99461.52
2019-03-25T02:20:02.438Z,99454.91
2019-03-25T02:22:30.907Z,99449.26
2019-03-25T02:24:59.285Z,99442.16
2019-03-25T02:27:27.662Z,99436.98
2019-03-25T02:29:56.055Z,99429.91
2019-03-25T02:32:24.683Z,99424.73
2019-03-25T02:34:53.065Z,99422.45
2019-03-25T02:37:21.462Z,99418.95
2019-03-25T02:39:49.843Z,99420.77
2019-03-25T02:42:18.232Z,99419.45
2019-03-25T02:44:46.621Z,99418.59
2019-03-25T02:47:14.996Z,99415.64
2019-03-25T02:49:43.381Z,99413.77
2019-03-25T02:52:11.759Z,99409.44
2019-03-25T02:54:40.144Z,99398.41
2019-03-25T02:57:08.531Z,99397.16
2019-03-25T02:59:36.932Z,99392.27
2019-03-25T03:02:05.388Z,99391.81
2019-03-25T03:04:33.788Z,99393.59
2019-03-25T03:07:02.167Z,99384.91
2019-03-25T03:09:30.570Z,99380.48
2019-03-25T03:11:59.112Z,99376.13
2019-03-25T03:14:27.503Z,99373.12
2019-03-25T03:16:55.877Z,99374.34
2019-03-25T03:19:24.841Z,99367.74
2019-03-25T03:21:53.226Z,99366.06
2019-03-25T03:24:21.622Z,99363.88
2019-03-25T03:26:50.016Z,99359.92
2019-03-25T03:29:18.403Z,99348.89
2019-03-25T03:31:46.778Z,99354.54
2019-03-25T03:34:15.153Z,99346.62
2019-03-25T03:36:43.549Z,99341.34
2019-03-25T03:39:11.934Z,99335.69
2019-03-25T03:41:40.335Z,99336.52
2019-03-25T03:44:08.698Z,99337.02
2019-03-25T03:46:37.101Z,99337.11
2019-03-25T03:49:05.471Z,99330.21
2019-03-25T03:51:34.345Z,99332.29
2019-03-25T03:54:02.706Z,99323.91
2019-03-25T03:56:31.774Z,99319.95
2019-03-25T03:59:02.673Z,99317.30
2019-03-25T04:01:31.126Z,99318.62
2019-03-25T04:03:59.493Z,99312.09
2019-03-25T04:06:27.905Z,99320.51
2019-03-25T04:08:56.275Z,99309.45
2019-03-25T04:11:25.264Z,99309.45
2019-03-25T04:13:53.637Z,99312.09
2019-03-25T04:16:22.032Z,99300.20
2019-03-25T04:18:50.416Z,99308.52
2019-03-25T04:21:18.803Z,99307.66
2019-03-25T04:23:47.193Z,99304.56
2019-03-25T04:26:27.721Z,99303.80
2019-03-25T04:28:45.690Z,99303.70
2019-03-25T04:31:14.094Z,99305.98
2019-03-25T04:33:42.480Z,99302.48
2019-03-25T04:36:10.874Z,99303.34
2019-03-25T04:38:39.267Z,99301.92
2019-03-25T04:41:07.665Z,99302.38
2019-03-25T04:43:36.058Z,99291.92
2019-03-25T04:46:04.417Z,99290.60
2019-03-25T04:48:32.814Z,99294.56
2019-03-25T04:51:01.192Z,99290.60
2019-03-25T04:53:29.578Z,99287.96
2019-03-25T04:55:57.951Z,99287.00
2019-03-25T04:58:26.336Z,99299.84
2019-03-25T05:00:55.958Z,99299.09
2019-03-25T05:03:24.422Z,99292.87
2019-03-25T05:05:52.800Z,99292.98
2019-03-25T05:08:21.186Z,99293.44
2019-03-25T05:10:49.576Z,99288.62
2019-03-25T05:13:17.956Z,99294.77
2019-03-25T05:15:46.343Z,99284.77
2019-03-25T05:18:14.725Z,99287.77
2019-03-25T05:20:43.109Z,99289.68
2019-03-25T05:23:11.567Z,99285.13
2019-03-25T05:25:39.949Z,99288.26
2019-03-25T05:28:08.574Z,99292.68
2019-03-25T05:30:37.008Z,99295.69
2019-03-25T05:33:05.409Z,99297.01
2019-03-25T05:35:33.796Z,99300.97
2019-03-25T05:38:02.207Z,99295.13
2019-03-25T05:40:30.581Z,99302.69
2019-03-25T05:42:58.964Z,99305.22
2019-03-25T05:45:27.333Z,99303.05
2019-03-25T05:47:56.198Z,99299.94
2019-03-25T05:50:24.575Z,99306.55
2019-03-25T05:52:52.977Z,99305.69
2019-03-25T05:55:21.351Z,99313.25
2019-03-25T05:57:49.731Z,99314.47
2019-03-25T06:00:19.843Z,99313.61
2019-03-25T06:02:48.221Z,99313.61
2019-03-25T06:05:16.609Z,99312.59
2019-03-25T06:07:45.002Z,99314.83
2019-03-25T06:10:13.528Z,99316.75
2019-03-25T06:12:42.570Z,99319.65
2019-03-25T06:15:11.326Z,99318.69
2019-03-25T06:17:39.698Z,99328.89
2019-03-25T06:20:08.430Z,99323.97
2019-03-25T06:22:36.815Z,99321.83
2019-03-25T06:25:07.141Z,99325.69
2019-03-25T06:27:35.513Z,99333.61
2019-03-25T06:30:07.095Z,99320.31
2019-03-25T06:32:35.470Z,99318.06
2019-03-25T06:35:05.108Z,99318.06
2019-03-25T06:37:33.472Z,99332.29
2019-03-25T06:40:01.859Z,99327.01
2019-03-25T06:42:30.268Z,99336.35
2019-03-25T06:44:58.653Z,99337.57
2019-03-25T06:47:27.024Z,99347.67
2019-03-25T06:49:55.467Z,99342.39
2019-03-25T06:52:23.877Z,99356.81
2019-03-25T06:54:52.278Z,99360.02
2019-03-25T06:57:25.396Z,99360.02
2019-03-25T06:59:50.784Z,99359.06
2019-03-25T07:02:19.162Z,99356.81
2019-03-25T07:04:47.556Z,99369.83
2019-03-25T07:07:15.932Z,99368.87
2019-03-25T07:09:44.347Z,99359.83
2019-03-25T07:12:12.889Z,99356.78
2019-03-25T07:14:41.523Z,99353.42
2019-03-25T07:17:09.904Z,99370.66
2019-03-25T07:19:38.292Z,99366.33
2019-03-25T07:22:06.677Z,99370.09
2019-03-25T07:24:35.204Z,99366.89
2019-03-25T07:27:03.581Z,99366.72
2019-03-25T07:29:31.972Z,99366.63
2019-03-25T07:32:00.359Z,99380.33
2019-03-25T07:34:28.976Z,99375.67
2019-03-25T07:36:57.348Z,99371.55
2019-03-25T07:39:25.759Z,99376.17
2019-03-25T07:41:54.138Z,99377.59
2019-03-25T07:44:22.525Z,99380.69
2019-03-25T07:46:50.924Z,99377.95
2019-03-25T07:49:19.311Z,99378.34
2019-03-25T07:51:47.711Z,99364.38
2019-03-25T07:54:16.106Z,99375.87
2019-03-25T07:56:44.511Z,99376.27
2019-03-25T07:59:12.885Z,99374.75
2019-03-25T08:01:41.288Z,99374.75
2019-03-25T08:04:09.687Z,99371.31
2019-03-25T08:06:38.119Z,99380.09
2019-03-25T08:09:07.399Z,99371.55
2019-03-25T08:11:35.758Z,99382.87
2019-03-25T08:14:04.246Z,99376.83
2019-03-25T08:16:32.606Z,99374.75
2019-03-25T08:19:01.111Z,99385.22
2019-03-25T08:21:29.671Z,99394.00
2019-03-25T08:23:58.127Z,99384.55
2019-03-25T08:26:27.518Z,99389.08
2019-03-25T08:28:55.890Z,99388.51
2019-03-25T08:31:24.287Z,99393.59
2019-03-25T08:33:52.663Z,99395.27
2019-03-25T08:36:21.091Z,99394.78
2019-03-25T08:38:49.477Z,99389.76
2019-03-25T08:41:17.883Z,99389.97
2019-03-25T08:43:46.271Z,99389.11
2019-03-25T08:46:14.752Z,99393.53
2019-03-25T08:48:43.210Z,99391.64
2019-03-25T08:51:11.586Z,99395.50
2019-03-25T08:53:39.974Z,99384.81
2019-03-25T08:56:08.422Z,99385.98
2019-03-25T08:58:36.805Z,99381.27
2019-03-25T09:01:05.185Z,99388.25
2019-03-25T09:03:33.585Z,99385.81
2019-03-25T09:06:01.966Z,99384.38
2019-03-25T09:08:30.354Z,99386.01
2019-03-25T09:10:58.730Z,99373.16
2019-03-25T09:13:27.909Z,99371.77
2019-03-25T09:15:56.509Z,99365.70
2019-03-25T09:18:24.873Z,99380.05
2019-03-25T09:20:53.250Z,99384.03
2019-03-25T09:23:21.810Z,99387.34
2019-03-25T09:25:50.267Z,99392.83
2019-03-25T09:28:24.143Z,99402.64
2019-03-25T09:30:54.807Z,99422.20
2019-03-25T09:33:23.528Z,99428.81
2019-03-25T09:35:52.020Z,99417.58
2019-03-25T09:38:20.441Z,99422.67
2019-03-25T09:40:48.832Z,99415.70
2019-03-25T09:43:17.297Z,99414.73
2019-03-25T09:45:45.760Z,99410.48
2019-03-25T09:48:14.163Z,99407.36
2019-03-25T09:50:42.542Z,99409.88
2019-03-25T09:53:10.940Z,99401.63
2019-03-25T09:55:39.321Z,99405.95
2019-03-25T09:58:07.710Z,99416.24
2019-03-25T10:00:36.118Z,99418.41
2019-03-25T10:03:04.574Z,99406.45
2019-03-25T10:05:32.962Z,99403.57
2019-03-25T10:08:01.366Z,99406.02
2019-03-25T10:10:29.749Z,99413.73
2019-03-25T10:12:58.466Z,99413.53
2019-03-25T10:15:26.865Z,99416.41
2019-03-25T10:17:55.251Z,99417.86
2019-03-25T10:20:23.637Z,99429.09
2019-03-25T10:22:52.033Z,99439.78
2019-03-25T10:25:20.432Z,99449.91
2019-03-25T10:27:48.809Z,99463.79
2019-03-25T10:30:17.730Z,99467.95
2019-03-25T10:32:46.120Z,99467.56
2019-03-25T10:35:14.848Z,99468.71
2019-03-25T10:37:43.310Z,99477.47
2019-03-25T10:40:11.849Z,99475.32
2019-03-25T10:42:40.239Z,99466.73
2019-03-25T10:45:09.658Z,99456.45
2019-03-25T10:47:38.044Z,99450.63
2019-03-25T10:50:07.678Z,99444.54
2019-03-25T10:52:36.061Z,99451.38
2019-03-25T10:55:07.727Z,99446.22
2019-03-25T10:57:35.778Z,99431.80
2019-03-25T11:00:09.857Z,99431.53
2019-03-25T11:02:38.313Z,99426.28
2019-03-25T11:05:08.233Z,99451.68
2019-03-25T11:07:36.668Z,99465.71
2019-03-25T11:10:08.739Z,99475.95
2019-03-25T11:12:37.122Z,99458.89
2019-03-25T11:15:09.273Z,99458.32
2019-03-25T11:17:37.926Z,99462.56
2019-03-25T11:20:09.009Z,99460.45
2019-03-25T11:22:37.458Z,99458.95
2019-03-25T11:25:06.607Z,99453.59
2019-03-25T11:27:34.974Z,99446.55
2019-03-25T11:30:05.709Z,99443.91
2019-03-25T11:32:34.191Z,99453.38
2019-03-25T11:35:02.595Z,99446.57
2019-03-25T11:37:30.966Z,99443.34
2019-03-25T11:39:59.408Z,99449.92
2019-03-25T11:42:27.787Z,99459.84
2019-03-25T11:44:56.173Z,99458.23
2019-03-25T11:47:24.567Z,99468.28
2019-03-25T11:49:53.061Z,99469.95
2019-03-25T11:52:21.410Z,99485.98
2019-03-25T11:54:49.806Z,99498.09
2019-03-25T11:57:18.208Z,99483.05
2019-03-25T11:59:46.575Z,99479.77
2019-03-25T12:02:17.826Z,99476.66
2019-03-25T12:04:45.078Z,99468.55
2019-03-25T12:07:13.473Z,99465.92
2019-03-25T12:09:41.850Z,99470.69
2019-03-25T12:12:10.241Z,99469.74
2019-03-25T12:14:38.611Z,99477.19
2019-03-25T12:17:06.997Z,99483.59
2019-03-25T12:19:35.377Z,99493.66
2019-03-25T12:22:03.759Z,99485.33
2019-03-25T12:24:32.147Z,99487.72
2019-03-25T12:27:00.545Z,99490.66
2019-03-25T12:29:30.619Z,99495.28
2019-03-25T12:31:59.547Z,99495.84
2019-03-25T12:34:28.027Z,99491.19
2019-03-25T12:36:56.385Z,99497.16
2019-03-25T12:39:24.769Z,99486.69
2019-03-25T12:41:53.276Z,99483.50
2019-03-25T12:44:21.665Z,99483.56
2019-03-25T12:46:50.043Z,99482.95
2019-03-25T12:49:18.421Z,99472.09
2019-03-25T12:51:48.432Z,99479.03
2019-03-25T12:54:16.964Z,99474.08
2019-03-25T12:56:45.356Z,99460.58
2019-03-25T12:59:13.746Z,99452.69
2019-03-25T13:01:52.543Z,99466.19
2019-03-25T13:04:12.216Z,99471.05
2019-03-25T13:06:40.618Z,99478.39
2019-03-25T13:09:09.076Z,99497.81
2019-03-25T13:11:37.511Z,99508.23
2019-03-25T13:14:06.927Z,99499.83
2019-03-25T13:16:35.342Z,99485.94
2019-03-25T13:19:03.713Z,99493.89
2019-03-25T13:21:32.097Z,99487.04
2019-03-25T13:24:00.467Z,99496.15
2019-03-25T13:26:28.853Z,99484.77
2019-03-25T13:29:01.899Z,99489.55
2019-03-25T13:31:27.351Z,99494.56
2019-03-25T13:33:55.738Z,99489.84
2019-03-25T13:36:24.127Z,99494.56
2019-03-25T13:38:52.507Z,99491.16
2019-03-25T13:41:20.899Z,99488.91
2019-03-25T13:43:49.284Z,99501.58
2019-03-25T13:46:17.674Z,99503.16
2019-03-25T13:48:46.055Z,99508.92
2019-03-25T13:51:14.433Z,99508.56
2019-03-25T13:53:42.830Z,99485.83
2019-03-25T13:56:11.219Z,99489.21
2019-03-25T13:58:39.613Z,99491.05
2019-03-25T14:01:08.002Z,99491.44
2019-03-25T14:03:36.389Z,99484.80
2019-03-25T14:06:05.046Z,99476.91
2019-03-25T14:08:33.430Z,99478.06
2019-03-25T14:11:01.816Z,99486.20
2019-03-25T14:13:30.405Z,99488.39
2019-03-25T14:15:58.828Z,99487.14
2019-03-25T14:18:27.267Z,99480.05
2019-03-25T14:20:55.635Z,99480.13
2019-03-25T14:23:24.091Z,99489.78
2019-03-25T14:25:52.482Z,99503.67
2019-03-25T14:28:20.852Z,99523.74
2019-03-25T14:30:49.247Z,99514.01
2019-03-25T14:33:17.617Z,99522.11
2019-03-25T14:35:46.014Z,99518.67
2019-03-25T14:38:14.388Z,99521.61
2019-03-25T14:40:42.779Z,99515.66
2019-03-25T14:43:11.158Z,99519.25
2019-03-25T14:45:39.549Z,99510.08
2019-03-25T14:48:07.970Z,99508.75
2019-03-25T14:50:36.316Z,99515.48
2019-03-25T14:53:04.689Z,99507.00
2019-03-25T14:55:33.101Z,99504.89
2019-03-25T14:58:01.477Z,99514.01
2019-03-25T15:00:30.775Z,99499.83
2019-03-25T15:02:59.144Z,99519.14
2019-03-25T15:05:27.529Z,99512.84
2019-03-25T15:07:55.902Z,99512.39
2019-03-25T15:10:24.303Z,99508.63
2019-03-25T15:12:52.693Z,99518.07
2019-03-25T15:15:21.080Z,99516.95
2019-03-25T15:17:49.473Z,99515.73
2019-03-25T15:20:17.931Z,99518.02
2019-03-25T15:22:46.316Z,99526.63
2019-03-25T15:25:14.782Z,99526.33
2019-03-25T15:27:43.239Z,99529.19
2019-03-25T15:30:12.289Z,99543.08
2019-03-25T15:32:40.671Z,99539.78
2019-03-25T15:35:09.192Z,99541.77
2019-03-25T15:37:37.588Z,99534.79
2019-03-25T15:40:10.495Z,99551.23
2019-03-25T15:42:38.868Z,99558.41
2019-03-25T15:45:09.386Z,99556.23
2019-03-25T15:47:38.162Z,99540.85
2019-03-25T15:50:11.362Z,99554.64
2019-03-25T15:52:39.820Z,99561.25
2019-03-25T15:55:08.435Z,99554.28
2019-03-25T15:57:39.454Z,99550.77
2019-03-25T16:00:13.516Z,99548.80
2019-03-25T16:02:41.969Z,99558.98
2019-03-25T16:05:10.576Z,99562.38
2019-03-25T16:07:39.957Z,99563.61
2019-03-25T16:10:09.178Z,99571.84
2019-03-25T16:12:37.579Z,99577.03
2019-03-25T16:15:09.632Z,99576.73
2019-03-25T16:17:38.025Z,99569.34
2019-03-25T16:20:08.014Z,99585.78
2019-03-25T16:22:36.407Z,99592.34
2019-03-25T16:25:08.103Z,99592.80
2019-03-25T16:27:36.484Z,99606.79
2019-03-25T16:30:08.718Z,99608.21
2019-03-25T16:32:37.113Z,99620.58
2019-03-25T16:35:06.769Z,99625.50
2019-03-25T16:37:35.166Z,99652.88
2019-03-25T16:40:04.232Z,99633.14
2019-03-25T16:42:32.634Z,99627.09
2019-03-25T16:45:01.603Z,99648.51
2019-03-25T16:47:29.991Z,99652.20
2019-03-25T16:49:58.366Z,99655.11
2019-03-25T16:52:26.779Z,99672.59
2019-03-25T16:54:55.207Z,99654.85
2019-03-25T16:57:23.593Z,99658.33
2019-03-25T16:59:51.983Z,99655.41
2019-03-25T17:02:20.412Z,99661.16
2019-03-25T17:04:48.811Z,99670.05
2019-03-25T17:07:17.206Z,99677.31
2019-03-25T17:09:45.604Z,99683.63
2019-03-25T17:12:14.024Z,99688.64
2019-03-25T17:14:42.448Z,99692.20
2019-03-25T17:17:10.860Z,99700.73
2019-03-25T17:19:39.284Z,99694.67
2019-03-25T17:22:07.704Z,99701.28
2019-03-25T17:24:36.106Z,99710.35
2019-03-25T17:27:04.592Z,99720.66
2019-03-25T17:29:33.010Z,99719.48
2019-03-25T17:32:01.999Z,99735.08
2019-03-25T17:34:30.407Z,99735.55
2019-03-25T17:36:58.832Z,99735.73
2019-03-25T17:39:27.245Z,99732.78
2019-03-25T17:41:55.750Z,99736.19
2019-03-25T17:44:24.230Z,99735.27
2019-03-25T17:46:52.630Z,99742.80
2019-03-25T17:49:21.071Z,99750.27
2019-03-25T17:51:49.502Z,99763.67
2019-03-25T17:54:17.940Z,99771.75
2019-03-25T17:56:46.355Z,99777.05
2019-03-25T17:59:14.804Z,99775.35
2019-03-25T18:01:43.229Z,99784.38
2019-03-25T18:04:11.773Z,99784.38
2019-03-25T18:06:40.185Z,99787.13
2019-03-25T18:09:08.663Z,99791.17
2019-03-25T18:11:37.069Z,99796.00
2019-03-25T18:14:05.451Z,99796.28
2019-03-25T18:16:33.843Z,99799.88
2019-03-25T18:19:02.371Z,99798.19
2019-03-25T18:21:30.769Z,99799.88
2019-03-25T18:23:59.157Z,99805.94
2019-03-25T18:26:27.542Z,99809.90
2019-03-25T18:28:55.932Z,99817.73
2019-03-25T18:31:24.387Z,99823.39
2019-03-25T18:33:52.811Z,99829.08
2019-03-25T18:36:21.175Z,99835.29
2019-03-25T18:38:49.575Z,99843.31
2019-03-25T18:41:18.023Z,99862.27
2019-03-25T18:43:46.427Z,99874.75
2019-03-25T18:46:15.090Z,99871.62
2019-03-25T18:48:43.536Z,99868.60
2019-03-25T18:51:11.932Z,99868.23
2019-03-25T18:53:40.370Z,99875.21
2019-03-25T18:56:08.853Z,99876.63
2019-03-25T18:58:37.676Z,99883.32
2019-03-25T19:01:06.076Z,99878.58
2019-03-25T19:03:34.694Z,99890.84
2019-03-25T19:06:03.154Z,99899.41
2019-03-25T19:08:31.725Z,99901.77
2019-03-25T19:11:00.084Z,99910.06
2019-03-25T19:13:28.462Z,99917.25
2019-03-25T19:15:56.860Z,99911.97
2019-03-25T19:18:25.223Z,99916.85
2019-03-25T19:20:53.633Z,99923.55
2019-03-25T19:23:22.008Z,99929.69
2019-03-25T19:25:50.385Z,99941.50
2019-03-25T19:28:18.805Z,99942.19
2019-03-25T19:30:47.164Z,99949.63
2019-03-25T19:33:15.559Z,99950.49
2019-03-25T19:35:43.944Z,99950.66
2019-03-25T19:38:12.372Z,99957.53
2019-03-25T19:40:40.725Z,99955.03
2019-03-25T19:43:09.155Z,99960.57
2019-03-25T19:45:37.511Z,99960.57
2019-03-25T19:48:05.899Z,99972.38
2019-03-25T19:50:34.339Z,99975.10
2019-03-25T19:53:03.724Z,99979.93
2019-03-25T19:55:32.105Z,99982.66
2019-03-25T19:58:00.520Z,99994.14
2019-03-25T20:00:39.635Z,99994.14
2019-03-25T20:03:08.005Z,99999.05
2019-03-25T20:05:36.547Z,100002.61
2019-03-25T20:08:05.273Z,100011.03
2019-03-25T20:10:35.256Z,100013.67
2019-03-25T20:13:03.892Z,100016.86
2019-03-25T20:15:44.908Z,100018.55
2019-03-25T20:18:02.419Z,100030.52
2019-03-25T20:20:30.818Z,100032.30
2019-03-25T20:22:59.201Z,100037.91
2019-03-25T20:25:27.589Z,100041.55
2019-03-25T20:27:55.982Z,100038.08
2019-03-25T20:30:24.799Z,100046.46
2019-03-25T20:32:53.217Z,100050.51
2019-03-25T20:35:21.593Z,100051.05
2019-03-25T20:37:49.999Z,100054.92
2019-03-25T20:40:18.381Z,100058.08
2019-03-25T20:42:46.795Z,100059.48
2019-03-25T20:45:18.223Z,100066.08
2019-03-25T20:47:45.419Z,100067.41
2019-03-25T20:50:13.817Z,100069.22
2019-03-25T20:52:42.226Z,100073.63
2019-03-25T20:55:10.657Z,100078.55
2019-03-25T20:57:40.561Z,100084.20
2019-03-25T21:00:10.237Z,100093.91
2019-03-25T21:02:44.788Z,100093.37
2019-03-25T21:05:08.898Z,100089.11
2019-03-25T21:07:37.361Z,100092.66
2019-03-25T21:10:08.564Z,100100.13
2019-03-25T21:12:38.577Z,100104.63
2019-03-25T21:15:08.807Z,100105.66
2019-03-25T21:17:37.169Z,100106.49
2019-03-25T21:20:07.683Z,100111.77
2019-03-25T21:22:36.192Z,100111.40
2019-03-25T21:25:06.398Z,100118.92
2019-03-25T21:27:34.759Z,100124.20
2019-03-25T21:30:05.483Z,100130.34
2019-03-25T21:32:34.168Z,100135.17
2019-03-25T21:35:02.659Z,100137.08
2019-03-25T21:37:31.169Z,100144.06
2019-03-25T21:39:59.533Z,100137.86
2019-03-25T21:42:29.277Z,100136.75
2019-03-25T21:44:57.802Z,100145.42
2019-03-25T21:47:26.203Z,100149.09
2019-03-25T21:49:54.590Z,100148.30
2019-03-25T21:52:23.008Z,100141.86
2019-03-25T21:54:51.444Z,100141.08
2019-03-25T21:57:19.808Z,100145.95
2019-03-25T21:59:48.145Z,100153.88
2019-03-25T22:02:16.531Z,100151.23
2019-03-25T22:04:44.918Z,100152.09
2019-03-25T22:07:13.308Z,100148.55
2019-03-25T22:09:41.708Z,100149.30
2019-03-25T22:12:10.098Z,100154.28
2019-03-25T22:14:38.505Z,100163.53
2019-03-25T22:17:06.893Z,100166.63
2019-03-25T22:19:35.283Z,100168.81
2019-03-25T22:22:04.426Z,100175.00
2019-03-25T22:24:32.806Z,100177.59
2019-03-25T22:27:01.409Z,100178.05
2019-03-25T22:29:29.804Z,100177.19
2019-03-25T22:31:58.176Z,100178.14
2019-03-25T22:34:26.584Z,100187.76
2019-03-25T22:36:54.960Z,100186.28
2019-03-25T22:39:23.344Z,100189.00
2019-03-25T22:41:51.725Z,100190.31
2019-03-25T22:44:20.119Z,100195.15
2019-03-25T22:46:48.493Z,100196.92
2019-03-25T22:49:16.883Z,100196.02
2019-03-25T22:51:45.264Z,100194.69
2019-03-25T22:54:13.666Z,100198.66
2019-03-25T22:56:42.044Z,100197.41
2019-03-25T22:59:10.435Z,100198.73
2019-03-25T23:01:39.063Z,100203.08
2019-03-25T23:04:07.468Z,100215.41
2019-03-25T23:06:35.879Z,100211.94
2019-03-25T23:09:07.585Z,100208.36
2019-03-25T23:11:36.208Z,100210.55
2019-03-25T23:14:04.945Z,100217.15
2019-03-25T23:16:33.349Z,100220.70
2019-03-25T23:19:01.738Z,100208.73
2019-03-25T23:21:30.130Z,100204.31
2019-03-25T23:23:58.530Z,100209.60
2019-03-25T23:26:26.921Z,100214.09
2019-03-25T23:28:55.307Z,100219.00
2019-03-25T23:31:23.692Z,100220.32
2019-03-25T23:33:52.776Z,100220.85
2019-03-25T23:36:21.156Z,100219.16
2019-03-25T23:38:49.525Z,100221.39
2019-03-25T23:41:17.935Z,100224.03
2019-03-25T23:43:46.324Z,100231.13
2019-03-25T23:46:14.724Z,100235.61
2019-03-25T23:48:43.133Z,100240.03
2019-03-25T23:51:11.535Z,100245.39
2019-03-25T23:53:39.919Z,100240.97
2019-03-25T23:56:08.305Z,100235.69
2019-03-25T23:58:36.679Z,100237.02
